sensor_id;sensor_type;location;lat;lon;timestamp;pressure;altitude;pressure_sealevel;temperature;humidity
64844;BME280;51310;52.198;5.422;2024-01-15T00:00:18;100135.97;;;0.26;100.00
64844;BME280;51310;52.198;5.422;2024-01-15T00:02:44;100132.53;;;0.24;100.00
64844;BME280;51310;52.198;5.422;2024-01-15T00:05:10;100110.03;;;0.15;100.00
64844;BME280;51310;52.198;5.422;2024-01-15T00:07:36;100122.09;;;0.23;100.00
64844;BME280;51310;52.198;5.422;2024-01-15T00:10:02;100122.97;;;0.22;100.00
64844;BME280;51310;52.198;5.422;2024-01-15T00:12:29;100116.00;;;0.20;100.00
64844;BME280;51310;52.198;5.422;2024-01-15T00:14:55;100096.31;;;0.06;100.00
64844;BME280;51310;52.198;5.422;2024-01-15T00:17:21;100107.94;;;-0.02;100.00
64844;BME280;51310;52.198;5.422;2024-01-15T00:19:47;100103.53;;;-0.01;100.00
64844;BME280;51310;52.198;5.422;2024-01-15T00:22:13;100111.41;;;-0.01;100.00
64844;BME280;51310;52.198;5.422;2024-01-15T00:24:39;100093.47;;;-0.15;100.00
64844;BME280;51310;52.198;5.422;2024-01-15T00:27:05;100111.13;;;-0.20;100.00
64844;BME280;51310;52.198;5.422;2024-01-15T00:29:30;100100.81;;;-0.26;100.00
64844;BME280;51310;52.198;5.422;2024-01-15T00:31:56;100100.53;;;-0.17;100.00
64844;BME280;51310;52.198;5.422;2024-01-15T00:34:22;100104.94;;;-0.17;100.00
64844;BME280;51310;52.198;5.422;2024-01-15T00:36:48;100099.84;;;-0.24;100.00
64844;BME280;51310;52.198;5.422;2024-01-15T00:39:16;100092.44;;;-0.39;100.00
64844;BME280;51310;52.198;5.422;2024-01-15T00:41:42;100087.28;;;-0.42;100.00
64844;BME280;51310;52.198;5.422;2024-01-15T00:44:08;100067.47;;;-0.52;100.00
64844;BME280;51310;52.198;5.422;2024-01-15T00:46:45;100078.59;;;-0.44;100.00
64844;BME280;51310;52.198;5.422;2024-01-15T00:49:13;100087.13;;;-0.36;100.00
64844;BME280;51310;52.198;5.422;2024-01-15T00:51:39;100078.28;;;-0.33;100.00
64844;BME280;51310;52.198;5.422;2024-01-15T00:54:06;100078.44;;;-0.38;100.00
64844;BME280;51310;52.198;5.422;2024-01-15T00:56:32;100077.31;;;-0.31;100.00
64844;BME280;51310;52.198;5.422;2024-01-15T00:58:58;100080.56;;;-0.23;100.00
64844;BME280;51310;52.198;5.422;2024-01-15T01:01:24;100062.25;;;-0.24;100.00
64844;BME280;51310;52.198;5.422;2024-01-15T01:03:50;100057.06;;;-0.27;100.00
64844;BME280;51310;52.198;5.422;2024-01-15T01:06:16;100065.44;;;-0.14;100.00
64844;BME280;51310;52.198;5.422;2024-01-15T01:08:42;100062.50;;;-0.05;100.00
64844;BME280;51310;52.198;5.422;2024-01-15T01:11:07;100067.59;;;0.01;100.00
64844;BME280;51310;52.198;5.422;2024-01-15T01:13:37;100064.53;;;0.13;100.00
64844;BME280;51310;52.198;5.422;2024-01-15T01:16:03;100070.31;;;0.25;100.00
64844;BME280;51310;52.198;5.422;2024-01-15T01:18:29;100052.03;;;0.22;100.00
64844;BME280;51310;52.198;5.422;2024-01-15T01:20:55;100067.94;;;0.44;100.00
64844;BME280;51310;52.198;5.422;2024-01-15T01:23:21;100066.25;;;0.68;100.00
64844;BME280;51310;52.198;5.422;2024-01-15T01:25:47;100042.31;;;0.75;100.00
64844;BME280;51310;52.198;5.422;2024-01-15T01:28:13;100062.97;;;0.86;100.00
64844;BME280;51310;52.198;5.422;2024-01-15T01:30:39;100045.06;;;0.72;100.00
64844;BME280;51310;52.198;5.422;2024-01-15T01:33:05;100045.34;;;0.63;100.00
64844;BME280;51310;52.198;5.422;2024-01-15T01:35:31;100046.59;;;0.53;100.00
64844;BME280;51310;52.198;5.422;2024-01-15T01:37:56;100058.13;;;0.49;100.00
64844;BME280;51310;52.198;5.422;2024-01-15T01:40:22;100056.91;;;0.34;100.00
64844;BME280;51310;52.198;5.422;2024-01-15T01:42:48;100039.69;;;0.24;100.00
64844;BME280;51310;52.198;5.422;2024-01-15T01:45:15;100052.06;;;0.20;100.00
64844;BME280;51310;52.198;5.422;2024-01-15T01:47:41;100064.31;;;0.21;100.00
64844;BME280;51310;52.198;5.422;2024-01-15T01:50:08;100029.00;;;0.03;100.00
64844;BME280;51310;52.198;5.422;2024-01-15T01:52:34;100060.25;;;0.11;100.00
64844;BME280;51310;52.198;5.422;2024-01-15T01:55:02;100054.56;;;-0.02;100.00
64844;BME280;51310;52.198;5.422;2024-01-15T01:57:30;100044.97;;;-0.05;100.00
64844;BME280;51310;52.198;5.422;2024-01-15T02:00:00;100050.19;;;-0.03;100.00
64844;BME280;51310;52.198;5.422;2024-01-15T02:02:30;100077.50;;;0.19;100.00
64844;BME280;51310;52.198;5.422;2024-01-15T02:04:57;100093.72;;;0.32;100.00
64844;BME280;51310;52.198;5.422;2024-01-15T02:07:24;100099.72;;;0.36;100.00
64844;BME280;51310;52.198;5.422;2024-01-15T02:09:50;100089.22;;;0.36;100.00
64844;BME280;51310;52.198;5.422;2024-01-15T02:12:16;100073.03;;;0.22;100.00
64844;BME280;51310;52.198;5.422;2024-01-15T02:14:42;100073.19;;;0.17;100.00
64844;BME280;51310;52.198;5.422;2024-01-15T02:17:08;100052.38;;;0.11;100.00
64844;BME280;51310;52.198;5.422;2024-01-15T02:19:34;100060.41;;;0.06;100.00
64844;BME280;51310;52.198;5.422;2024-01-15T02:22:00;100064.13;;;-0.01;100.00
64844;BME280;51310;52.198;5.422;2024-01-15T02:24:26;100055.38;;;0.00;100.00
64844;BME280;51310;52.198;5.422;2024-01-15T02:26:51;100046.25;;;0.10;100.00
64844;BME280;51310;52.198;5.422;2024-01-15T02:29:18;100048.34;;;0.27;100.00
64844;BME280;51310;52.198;5.422;2024-01-15T02:31:43;100032.88;;;0.18;100.00
64844;BME280;51310;52.198;5.422;2024-01-15T02:34:09;100032.97;;;0.15;100.00
64844;BME280;51310;52.198;5.422;2024-01-15T02:36:35;100033.81;;;0.15;100.00
64844;BME280;51310;52.198;5.422;2024-01-15T02:39:01;100046.66;;;0.25;100.00
64844;BME280;51310;52.198;5.422;2024-01-15T02:41:27;100039.91;;;0.17;100.00
64844;BME280;51310;52.198;5.422;2024-01-15T02:43:53;100031.00;;;0.22;100.00
64844;BME280;51310;52.198;5.422;2024-01-15T02:46:19;100043.47;;;0.41;100.00
64844;BME280;51310;52.198;5.422;2024-01-15T02:48:45;100042.66;;;0.39;100.00
64844;BME280;51310;52.198;5.422;2024-01-15T02:51:11;100038.50;;;0.34;100.00
64844;BME280;51310;52.198;5.422;2024-01-15T02:53:37;100054.00;;;0.41;100.00
64844;BME280;51310;52.198;5.422;2024-01-15T02:56:03;100050.41;;;0.44;100.00
64844;BME280;51310;52.198;5.422;2024-01-15T02:58:29;100027.97;;;0.34;100.00
64844;BME280;51310;52.198;5.422;2024-01-15T03:00:55;100051.47;;;0.38;100.00
64844;BME280;51310;52.198;5.422;2024-01-15T03:03:21;100029.81;;;0.32;100.00
64844;BME280;51310;52.198;5.422;2024-01-15T03:05:47;100033.94;;;0.39;100.00
64844;BME280;51310;52.198;5.422;2024-01-15T03:08:12;100029.25;;;0.47;100.00
64844;BME280;51310;52.198;5.422;2024-01-15T03:10:38;100034.22;;;0.56;100.00
64844;BME280;51310;52.198;5.422;2024-01-15T03:13:04;100026.84;;;0.66;100.00
64844;BME280;51310;52.198;5.422;2024-01-15T03:15:30;100055.41;;;0.77;100.00
64844;BME280;51310;52.198;5.422;2024-01-15T03:17:56;100063.22;;;0.78;100.00
64844;BME280;51310;52.198;5.422;2024-01-15T03:20:22;100054.97;;;0.64;100.00
64844;BME280;51310;52.198;5.422;2024-01-15T03:22:47;100067.19;;;0.65;100.00
64844;BME280;51310;52.198;5.422;2024-01-15T03:25:14;100068.88;;;0.68;100.00
64844;BME280;51310;52.198;5.422;2024-01-15T03:27:40;100080.31;;;0.67;100.00
64844;BME280;51310;52.198;5.422;2024-01-15T03:30:07;100075.97;;;0.66;100.00
64844;BME280;51310;52.198;5.422;2024-01-15T03:32:33;100055.13;;;0.59;100.00
64844;BME280;51310;52.198;5.422;2024-01-15T03:34:59;100075.84;;;0.69;100.00
64844;BME280;51310;52.198;5.422;2024-01-15T03:37:25;100078.38;;;0.72;100.00
64844;BME280;51310;52.198;5.422;2024-01-15T03:39:51;100068.88;;;0.68;100.00
64844;BME280;51310;52.198;5.422;2024-01-15T03:42:16;100066.25;;;0.68;100.00
64844;BME280;51310;52.198;5.422;2024-01-15T03:44:42;100048.06;;;0.61;100.00
64844;BME280;51310;52.198;5.422;2024-01-15T03:47:08;100015.06;;;0.53;100.00
64844;BME280;51310;52.198;5.422;2024-01-15T03:49:34;100008.34;;;0.44;100.00
64844;BME280;51310;52.198;5.422;2024-01-15T03:52:00;100003.84;;;0.23;100.00
64844;BME280;51310;52.198;5.422;2024-01-15T03:54:26;99999.63;;;0.17;100.00
64844;BME280;51310;52.198;5.422;2024-01-15T03:56:52;100011.31;;;0.08;100.00
64844;BME280;51310;52.198;5.422;2024-01-15T03:59:18;100003.75;;;-0.03;100.00
64844;BME280;51310;52.198;5.422;2024-01-15T04:01:50;100010.94;;;-0.08;100.00
64844;BME280;51310;52.198;5.422;2024-01-15T04:04:17;100001.41;;;-0.10;100.00
64844;BME280;51310;52.198;5.422;2024-01-15T04:06:43;100004.19;;;-0.15;100.00
64844;BME280;51310;52.198;5.422;2024-01-15T04:09:09;100003.41;;;-0.18;100.00
64844;BME280;51310;52.198;5.422;2024-01-15T04:11:35;99987.09;;;-0.28;100.00
64844;BME280;51310;52.198;5.422;2024-01-15T04:14:01;99981.03;;;-0.30;100.00
64844;BME280;51310;52.198;5.422;2024-01-15T04:16:27;99993.31;;;-0.31;100.00
64844;BME280;51310;52.198;5.422;2024-01-15T04:18:53;99995.13;;;-0.33;100.00
64844;BME280;51310;52.198;5.422;2024-01-15T04:21:19;99996.00;;;-0.34;100.00
64844;BME280;51310;52.198;5.422;2024-01-15T04:23:45;99991.69;;;-0.35;100.00
64844;BME280;51310;52.198;5.422;2024-01-15T04:26:11;99988.03;;;-0.29;100.00
64844;BME280;51310;52.198;5.422;2024-01-15T04:28:37;99967.44;;;-0.43;100.00
64844;BME280;51310;52.198;5.422;2024-01-15T04:31:03;99972.59;;;-0.40;100.00
64844;BME280;51310;52.198;5.422;2024-01-15T04:33:29;99981.19;;;-0.35;100.00
64844;BME280;51310;52.198;5.422;2024-01-15T04:35:55;99985.47;;;-0.32;100.00
64844;BME280;51310;52.198;5.422;2024-01-15T04:38:21;99982.00;;;-0.33;100.00
64844;BME280;51310;52.198;5.422;2024-01-15T04:40:46;99978.09;;;-0.21;100.00
64844;BME280;51310;52.198;5.422;2024-01-15T04:43:12;99977.25;;;-0.22;100.00
64844;BME280;51310;52.198;5.422;2024-01-15T04:45:38;99973.66;;;-0.19;100.00
64844;BME280;51310;52.198;5.422;2024-01-15T04:48:04;99970.91;;;-0.14;100.00
64844;BME280;51310;52.198;5.422;2024-01-15T04:50:30;99949.69;;;-0.08;100.00
64844;BME280;51310;52.198;5.422;2024-01-15T04:52:56;99965.19;;;-0.01;100.00
64844;BME280;51310;52.198;5.422;2024-01-15T04:55:22;99967.44;;;0.10;100.00
64844;BME280;51310;52.198;5.422;2024-01-15T04:57:48;99952.53;;;0.11;100.00
64844;BME280;51310;52.198;5.422;2024-01-15T05:00:14;99960.97;;;0.20;100.00
64844;BME280;51310;52.198;5.422;2024-01-15T05:02:40;99960.19;;;0.18;100.00
64844;BME280;51310;52.198;5.422;2024-01-15T05:05:06;99953.09;;;0.20;100.00
64844;BME280;51310;52.198;5.422;2024-01-15T05:07:32;99957.31;;;0.25;100.00
64844;BME280;51310;52.198;5.422;2024-01-15T05:09:58;99936.44;;;0.20;100.00
64844;BME280;51310;52.198;5.422;2024-01-15T05:12:24;99952.88;;;0.27;100.00
64844;BME280;51310;52.198;5.422;2024-01-15T05:14:50;99943.41;;;0.23;100.00
64844;BME280;51310;52.198;5.422;2024-01-15T05:17:16;99940.91;;;0.18;100.00
64844;BME280;51310;52.198;5.422;2024-01-15T05:19:41;99952.34;;;0.17;100.00
64844;BME280;51310;52.198;5.422;2024-01-15T05:22:07;99950.91;;;0.07;100.00
64844;BME280;51310;52.198;5.422;2024-01-15T05:24:33;99956.44;;;-0.01;100.00
64844;BME280;51310;52.198;5.422;2024-01-15T05:26:59;99947.66;;;0.00;100.00
64844;BME280;51310;52.198;5.422;2024-01-15T05:29:25;99957.78;;;0.11;100.00
64844;BME280;51310;52.198;5.422;2024-01-15T05:31:51;99962.72;;;0.20;100.00
64844;BME280;51310;52.198;5.422;2024-01-15T05:34:16;99955.88;;;0.16;100.00
64844;BME280;51310;52.198;5.422;2024-01-15T05:36:42;99960.66;;;0.30;100.00
64844;BME280;51310;52.198;5.422;2024-01-15T05:39:08;99954.41;;;0.34;100.00
64844;BME280;51310;52.198;5.422;2024-01-15T05:41:35;99969.59;;;0.49;100.00
64844;BME280;51310;52.198;5.422;2024-01-15T05:44:00;99979.78;;;0.58;100.00
64844;BME280;51310;52.198;5.422;2024-01-15T05:46:26;99987.63;;;0.60;100.00
64844;BME280;51310;52.198;5.422;2024-01-15T05:48:52;99990.25;;;0.60;100.00
64844;BME280;51310;52.198;5.422;2024-01-15T05:51:18;99977.09;;;0.60;100.00
64844;BME280;51310;52.198;5.422;2024-01-15T05:53:44;99981.50;;;0.59;100.00
64844;BME280;51310;52.198;5.422;2024-01-15T05:56:10;99975.78;;;0.48;100.00
64844;BME280;51310;52.198;5.422;2024-01-15T05:58:37;99987.63;;;0.35;100.00
64844;BME280;51310;52.198;5.422;2024-01-15T06:01:03;99972.09;;;0.02;100.00
64844;BME280;51310;52.198;5.422;2024-01-15T06:03:29;99984.28;;;0.05;100.00
64844;BME280;51310;52.198;5.422;2024-01-15T06:05:55;99969.13;;;-0.14;100.00
64844;BME280;51310;52.198;5.422;2024-01-15T06:08:21;99974.19;;;-0.08;100.00
64844;BME280;51310;52.198;5.422;2024-01-15T06:10:47;99976.97;;;-0.12;100.00
64844;BME280;51310;52.198;5.422;2024-01-15T06:13:13;99974.66;;;-0.23;100.00
64844;BME280;51310;52.198;5.422;2024-01-15T06:15:39;99979.84;;;-0.20;100.00
64844;BME280;51310;52.198;5.422;2024-01-15T06:18:05;99976.19;;;-0.16;100.00
64844;BME280;51310;52.198;5.422;2024-01-15T06:20:31;99971.69;;;-0.12;100.00
64844;BME280;51310;52.198;5.422;2024-01-15T06:22:57;99962.31;;;-0.19;100.00
64844;BME280;51310;52.198;5.422;2024-01-15T06:25:23;99961.38;;;-0.18;100.00
64844;BME280;51310;52.198;5.422;2024-01-15T06:27:49;99935.75;;;-0.37;100.00
64844;BME280;51310;52.198;5.422;2024-01-15T06:30:15;99964.94;;;-0.19;100.00
64844;BME280;51310;52.198;5.422;2024-01-15T06:32:41;99957.06;;;-0.19;100.00
64844;BME280;51310;52.198;5.422;2024-01-15T06:35:07;99957.94;;;-0.21;100.00
64844;BME280;51310;52.198;5.422;2024-01-15T06:37:33;99950.22;;;-0.25;100.00
64844;BME280;51310;52.198;5.422;2024-01-15T06:39:59;99952.78;;;-0.22;100.00
64844;BME280;51310;52.198;5.422;2024-01-15T06:42:25;99939.81;;;-0.27;100.00
64844;BME280;51310;52.198;5.422;2024-01-15T06:44:51;99950.19;;;-0.24;100.00
64844;BME280;51310;52.198;5.422;2024-01-15T06:47:17;99933.94;;;-0.35;100.00
64844;BME280;51310;52.198;5.422;2024-01-15T06:49:43;99931.41;;;-0.38;100.00
64844;BME280;51310;52.198;5.422;2024-01-15T06:52:09;99949.41;;;-0.27;100.00
64844;BME280;51310;52.198;5.422;2024-01-15T06:54:35;99944.97;;;-0.25;100.00
64844;BME280;51310;52.198;5.422;2024-01-15T06:57:00;99959.69;;;-0.19;100.00
64844;BME280;51310;52.198;5.422;2024-01-15T06:59:26;99951.91;;;-0.23;100.00
64844;BME280;51310;52.198;5.422;2024-01-15T07:01:52;99948.38;;;-0.22;100.00
64844;BME280;51310;52.198;5.422;2024-01-15T07:04:18;99957.03;;;-0.18;100.00
64844;BME280;51310;52.198;5.422;2024-01-15T07:06:44;99930.31;;;-0.31;100.00
64844;BME280;51310;52.198;5.422;2024-01-15T07:09:10;99956.25;;;-0.22;100.00
64844;BME280;51310;52.198;5.422;2024-01-15T07:11:36;99965.59;;;-0.13;100.00
64844;BME280;51310;52.198;5.422;2024-01-15T07:14:03;99982.75;;;-0.03;100.00
64844;BME280;51310;52.198;5.422;2024-01-15T07:16:29;99961.38;;;-0.18;100.00
64844;BME280;51310;52.198;5.422;2024-01-15T07:18:55;99974.63;;;0.05;100.00
64844;BME280;51310;52.198;5.422;2024-01-15T07:21:21;99974.94;;;-0.04;100.00
64844;BME280;51310;52.198;5.422;2024-01-15T07:23:47;99962.06;;;-0.12;100.00
64844;BME280;51310;52.198;5.422;2024-01-15T07:26:13;99942.97;;;-0.17;100.00
64844;BME280;51310;52.198;5.422;2024-01-15T07:28:39;99945.75;;;-0.22;100.00
64844;BME280;51310;52.198;5.422;2024-01-15T07:31:05;99962.97;;;-0.13;100.00
64844;BME280;51310;52.198;5.422;2024-01-15T07:33:31;99961.16;;;-0.11;100.00
64844;BME280;51310;52.198;5.422;2024-01-15T07:35:57;99962.91;;;-0.11;100.00
64844;BME280;51310;52.198;5.422;2024-01-15T07:38:23;99963.78;;;-0.11;100.00
64844;BME280;51310;52.198;5.422;2024-01-15T07:40:49;99961.84;;;-0.06;100.00
64844;BME280;51310;52.198;5.422;2024-01-15T07:43:15;99971.41;;;-0.03;100.00
64844;BME280;51310;52.198;5.422;2024-01-15T07:45:41;99982.00;;;-0.06;100.00
64844;BME280;51310;52.198;5.422;2024-01-15T07:48:07;99971.69;;;-0.12;100.00
64844;BME280;51310;52.198;5.422;2024-01-15T07:50:33;99979.22;;;-0.02;100.00
64844;BME280;51310;52.198;5.422;2024-01-15T07:52:59;99979.97;;;0.02;100.00
64844;BME280;51310;52.198;5.422;2024-01-15T07:55:25;99967.09;;;-0.06;100.00
64844;BME280;51310;52.198;5.422;2024-01-15T07:57:51;99943.75;;;-0.13;100.00
64844;BME280;51310;52.198;5.422;2024-01-15T08:00:18;99948.09;;;-0.14;100.00
64844;BME280;51310;52.198;5.422;2024-01-15T08:02:44;99937.91;;;-0.23;100.00
64844;BME280;51310;52.198;5.422;2024-01-15T08:05:10;99940.50;;;-0.22;100.00
64844;BME280;51310;52.198;5.422;2024-01-15T08:07:36;99936.13;;;-0.23;100.00
64844;BME280;51310;52.198;5.422;2024-01-15T08:10:02;99949.19;;;-0.19;100.00
64844;BME280;51310;52.198;5.422;2024-01-15T08:12:28;99954.53;;;-0.23;100.00
64844;BME280;51310;52.198;5.422;2024-01-15T08:14:54;99931.03;;;-0.27;100.00
64844;BME280;51310;52.198;5.422;2024-01-15T08:17:20;99949.38;;;-0.26;100.00
64844;BME280;51310;52.198;5.422;2024-01-15T08:19:46;99929.44;;;-0.31;100.00
64844;BME280;51310;52.198;5.422;2024-01-15T08:22:12;99957.03;;;-0.18;100.00
64844;BME280;51310;52.198;5.422;2024-01-15T08:24:38;99975.13;;;-0.10;100.00
64844;BME280;51310;52.198;5.422;2024-01-15T08:27:04;99974.06;;;-0.05;100.00
64844;BME280;51310;52.198;5.422;2024-01-15T08:29:30;99976.00;;;-0.10;100.00
64844;BME280;51310;52.198;5.422;2024-01-15T08:31:59;99982.22;;;-0.12;100.00
64844;BME280;51310;52.198;5.422;2024-01-15T08:34:25;99960.53;;;-0.19;100.00
64844;BME280;51310;52.198;5.422;2024-01-15T08:36:50;99953.50;;;-0.18;100.00
64844;BME280;51310;52.198;5.422;2024-01-15T08:39:16;99959.56;;;-0.16;100.00
64844;BME280;51310;52.198;5.422;2024-01-15T08:41:44;99956.06;;;-0.15;100.00
64844;BME280;51310;52.198;5.422;2024-01-15T08:44:12;99931.81;;;-0.24;100.00
64844;BME280;51310;52.198;5.422;2024-01-15T08:46:38;99953.47;;;-0.17;100.00
64844;BME280;51310;52.198;5.422;2024-01-15T08:49:04;99938.72;;;-0.21;100.00
64844;BME280;51310;52.198;5.422;2024-01-15T08:51:31;99949.25;;;-0.23;100.00
64844;BME280;51310;52.198;5.422;2024-01-15T08:53:57;99966.41;;;-0.11;100.00
64844;BME280;51310;52.198;5.422;2024-01-15T08:56:23;99964.44;;;-0.04;100.00
64844;BME280;51310;52.198;5.422;2024-01-15T08:58:49;99955.84;;;-0.09;100.00
64844;BME280;51310;52.198;5.422;2024-01-15T09:01:15;99965.75;;;0.09;100.00
64844;BME280;51310;52.198;5.422;2024-01-15T09:03:42;99973.47;;;0.14;100.00
64844;BME280;51310;52.198;5.422;2024-01-15T09:06:08;99973.31;;;0.18;100.00
64844;BME280;51310;52.198;5.422;2024-01-15T09:08:35;99946.72;;;0.03;100.00
64844;BME280;51310;52.198;5.422;2024-01-15T09:11:02;99973.47;;;0.14;100.00
64844;BME280;51310;52.198;5.422;2024-01-15T09:13:29;99963.03;;;0.11;100.00
64844;BME280;51310;52.198;5.422;2024-01-15T09:15:55;99974.13;;;0.20;100.00
64844;BME280;51310;52.198;5.422;2024-01-15T09:18:20;99958.25;;;0.24;100.00
64844;BME280;51310;52.198;5.422;2024-01-15T09:20:46;99942.25;;;0.05;100.00
64844;BME280;51310;52.198;5.422;2024-01-15T09:23:12;99952.53;;;0.11;100.00
64844;BME280;51310;52.198;5.422;2024-01-15T09:25:38;99953.41;;;0.11;100.00
64844;BME280;51310;52.198;5.422;2024-01-15T09:28:04;99945.81;;;0.02;100.00
64844;BME280;51310;52.198;5.422;2024-01-15T09:30:30;99967.34;;;0.13;100.00
64844;BME280;51310;52.198;5.422;2024-01-15T09:32:56;99962.06;;;0.13;100.00
64844;BME280;51310;52.198;5.422;2024-01-15T09:35:22;99944.94;;;0.03;100.00
64844;BME280;51310;52.198;5.422;2024-01-15T09:37:48;99963.13;;;0.09;100.00
64844;BME280;51310;52.198;5.422;2024-01-15T09:40:15;99960.50;;;0.09;100.00
64844;BME280;51310;52.198;5.422;2024-01-15T09:42:41;99935.16;;;0.07;100.00
64844;BME280;51310;52.198;5.422;2024-01-15T09:45:09;99953.91;;;0.23;100.00
64844;BME280;51310;52.198;5.422;2024-01-15T09:47:36;99961.94;;;0.43;100.00
64844;BME280;51310;52.198;5.422;2024-01-15T09:50:03;99971.41;;;0.47;100.00
64844;BME280;51310;52.198;5.422;2024-01-15T09:52:30;99981.72;;;0.53;100.00
64844;BME280;51310;52.198;5.422;2024-01-15T09:54:58;99957.91;;;0.33;100.00
64844;BME280;51310;52.198;5.422;2024-01-15T09:57:27;99972.19;;;0.26;100.00
64844;BME280;51310;52.198;5.422;2024-01-15T09:59:53;99954.91;;;0.18;100.00
64844;BME280;51310;52.198;5.422;2024-01-15T10:02:21;99976.28;;;0.34;100.00
64844;BME280;51310;52.198;5.422;2024-01-15T10:04:47;99982.91;;;0.45;100.00
64844;BME280;51310;52.198;5.422;2024-01-15T10:07:16;99980.13;;;0.49;100.00
64844;BME280;51310;52.198;5.422;2024-01-15T10:09:45;99981.72;;;0.53;100.00
64844;BME280;51310;52.198;5.422;2024-01-15T10:12:12;99981.88;;;0.49;100.00
64844;BME280;51310;52.198;5.422;2024-01-15T10:14:38;99978.53;;;0.45;100.00
64844;BME280;51310;52.198;5.422;2024-01-15T10:17:14;99964.59;;;0.43;100.00
64844;BME280;51310;52.198;5.422;2024-01-15T10:19:45;99976.13;;;0.62;100.00
64844;BME280;51310;52.198;5.422;2024-01-15T10:22:11;99986.66;;;0.62;100.00
64844;BME280;51310;52.198;5.422;2024-01-15T10:24:37;99985.16;;;0.55;100.00
64844;BME280;51310;52.198;5.422;2024-01-15T10:27:13;99994.06;;;0.51;100.00
64844;BME280;51310;52.198;5.422;2024-01-15T10:29:40;99964.66;;;0.40;100.00
64844;BME280;51310;52.198;5.422;2024-01-15T10:32:08;99969.88;;;0.41;100.00
64844;BME280;51310;52.198;5.422;2024-01-15T10:34:40;99980.03;;;0.52;100.00
64844;BME280;51310;52.198;5.422;2024-01-15T10:37:10;99985.16;;;0.55;100.00
64844;BME280;51310;52.198;5.422;2024-01-15T10:39:36;99980.72;;;0.57;100.00
64844;BME280;51310;52.198;5.422;2024-01-15T10:42:03;99967.03;;;0.48;100.00
64844;BME280;51310;52.198;5.422;2024-01-15T10:44:29;99986.22;;;0.75;100.00
64844;BME280;51310;52.198;5.422;2024-01-15T10:46:55;99977.41;;;0.76;100.00
64844;BME280;51310;52.198;5.422;2024-01-15T10:49:23;99979.47;;;0.68;100.00
64844;BME280;51310;52.198;5.422;2024-01-15T10:51:53;99986.28;;;0.73;100.00
64844;BME280;51310;52.198;5.422;2024-01-15T10:54:19;99999.47;;;0.72;100.00
64844;BME280;51310;52.198;5.422;2024-01-15T10:56:50;100003.63;;;0.79;100.00
64844;BME280;51310;52.198;5.422;2024-01-15T10:59:20;100011.84;;;0.93;100.00
64844;BME280;51310;52.198;5.422;2024-01-15T11:01:49;100003.41;;;1.09;100.00
64844;BME280;51310;52.198;5.422;2024-01-15T11:04:19;99999.16;;;1.04;100.00
64844;BME280;51310;52.198;5.422;2024-01-15T11:06:52;100010.00;;;0.97;100.00
64844;BME280;51310;52.198;5.422;2024-01-15T11:09:19;99996.50;;;0.81;100.00
64844;BME280;51310;52.198;5.422;2024-01-15T11:11:47;100022.50;;;0.90;100.00
64844;BME280;51310;52.198;5.422;2024-01-15T11:15:04;99984.75;;;0.68;100.00
64844;BME280;51310;52.198;5.422;2024-01-15T11:18:02;99996.28;;;0.64;100.00
64844;BME280;51310;52.198;5.422;2024-01-15T11:20:31;100024.75;;;0.76;100.00
64844;BME280;51310;52.198;5.422;2024-01-15T11:22:58;100019.31;;;0.80;100.00
64844;BME280;51310;52.198;5.422;2024-01-15T11:25:35;100026.25;;;0.83;100.00
64844;BME280;51310;52.198;5.422;2024-01-15T11:28:04;100005.31;;;0.80;100.00
64844;BME280;51310;52.198;5.422;2024-01-15T11:30:35;100011.97;;;0.90;100.00
64844;BME280;51310;52.198;5.422;2024-01-15T11:33:03;100017.13;;;0.93;100.00
64844;BME280;51310;52.198;5.422;2024-01-15T11:35:48;100016.78;;;1.02;100.00
64844;BME280;51310;52.198;5.422;2024-01-15T11:38:27;100016.66;;;1.06;100.00
64844;BME280;51310;52.198;5.422;2024-01-15T11:40:55;99993.78;;;1.08;100.00
64844;BME280;51310;52.198;5.422;2024-01-15T11:43:25;100013.56;;;1.41;100.00
64844;BME280;51310;52.198;5.422;2024-01-15T11:45:52;100027.06;;;1.56;100.00
64844;BME280;51310;52.198;5.422;2024-01-15T11:48:19;100025.50;;;1.50;100.00
64844;BME280;51310;52.198;5.422;2024-01-15T11:50:50;100015.38;;;1.39;100.00
64844;BME280;51310;52.198;5.422;2024-01-15T11:53:34;100013.50;;;1.43;100.00
64844;BME280;51310;52.198;5.422;2024-01-15T11:56:14;100018.47;;;1.51;100.00
64844;BME280;51310;52.198;5.422;2024-01-15T11:58:45;100026.81;;;1.62;100.00
64844;BME280;51310;52.198;5.422;2024-01-15T12:01:11;100020.59;;;1.64;100.00
64844;BME280;51310;52.198;5.422;2024-01-15T12:03:37;100044.56;;;1.57;100.00
64844;BME280;51310;52.198;5.422;2024-01-15T12:06:06;100054.06;;;1.37;100.00
64844;BME280;51310;52.198;5.422;2024-01-15T12:08:32;100063.94;;;1.09;100.00
64844;BME280;51310;52.198;5.422;2024-01-15T12:10:58;100054.28;;;0.84;100.00
64844;BME280;51310;52.198;5.422;2024-01-15T12:13:24;100058.69;;;0.83;100.00
64844;BME280;51310;52.198;5.422;2024-01-15T12:15:50;100058.97;;;0.74;100.00
64844;BME280;51310;52.198;5.422;2024-01-15T12:18:18;100067.84;;;0.72;100.00
64844;BME280;51310;52.198;5.422;2024-01-15T12:20:45;100064.16;;;0.77;100.00
64844;BME280;51310;52.198;5.422;2024-01-15T12:23:15;100064.03;;;0.80;100.00
64844;BME280;51310;52.198;5.422;2024-01-15T12:25:42;100057.66;;;0.88;100.00
64844;BME280;51310;52.198;5.422;2024-01-15T12:28:08;100053.16;;;0.91;100.00
64844;BME280;51310;52.198;5.422;2024-01-15T12:30:36;100056.78;;;0.87;100.00
64844;BME280;51310;52.198;5.422;2024-01-15T12:33:07;100070.91;;;1.10;100.00
64844;BME280;51310;52.198;5.422;2024-01-15T12:35:34;100087.31;;;1.16;100.00
64844;BME280;51310;52.198;5.422;2024-01-15T12:38:01;100070.03;;;1.09;100.00
64844;BME280;51310;52.198;5.422;2024-01-15T12:40:32;100058.03;;;0.77;100.00
64844;BME280;51310;52.198;5.422;2024-01-15T12:43:00;100056.91;;;0.84;100.00
64844;BME280;51310;52.198;5.422;2024-01-15T12:45:26;100056.09;;;0.82;100.00
64844;BME280;51310;52.198;5.422;2024-01-15T12:47:52;100054.66;;;0.73;100.00
64844;BME280;51310;52.198;5.422;2024-01-15T12:50:19;100062.53;;;0.73;100.00